createdAt,value
2018-09-14T00:00:46.608Z,0.00
2018-09-14T00:02:39.510Z,0.00
2018-09-14T00:03:39.324Z,0.00
2018-09-14T00:05:32.075Z,0.00
2018-09-14T00:06:32.017Z,0.00
2018-09-14T00:08:24.792Z,0.00
2018-09-14T00:09:24.708Z,0.00
2018-09-14T00:11:17.485Z,0.00
2018-09-14T00:12:17.412Z,0.00
2018-09-14T00:14:10.175Z,0.00
2018-09-14T00:15:10.110Z,0.00
2018-09-14T00:17:02.887Z,0.00
2018-09-14T00:18:02.814Z,0.00
2018-09-14T00:19:55.598Z,0.00
2018-09-14T00:20:55.525Z,0.00
2018-09-14T00:22:48.341Z,0.00
2018-09-14T00:23:48.256Z,0.00
2018-09-14T00:25:41.042Z,0.00
2018-09-14T00:26:40.975Z,0.00
2018-09-14T00:28:33.758Z,0.00
2018-09-14T00:29:33.689Z,0.00
2018-09-14T00:31:26.449Z,0.00
2018-09-14T00:32:26.376Z,0.00
2018-09-14T00:34:19.147Z,0.00
2018-09-14T00:35:19.075Z,0.00
2018-09-14T00:37:11.877Z,0.00
2018-09-14T00:38:11.801Z,0.00
2018-09-14T00:40:04.583Z,0.00
2018-09-14T00:41:04.507Z,0.00
2018-09-14T00:42:57.283Z,0.00
2018-09-14T00:43:57.201Z,0.00
2018-09-14T00:45:49.979Z,0.00
2018-09-14T00:46:49.911Z,0.00
2018-09-14T00:48:42.733Z,0.00
2018-09-14T00:49:42.601Z,0.00
2018-09-14T00:51:35.385Z,0.00
2018-09-14T00:52:35.306Z,0.00
2018-09-14T00:54:28.087Z,0.00
2018-09-14T00:55:27.997Z,0.00
2018-09-14T00:57:20.763Z,0.00
2018-09-14T00:58:20.692Z,0.00
2018-09-14T01:00:13.442Z,0.00
2018-09-14T01:01:13.384Z,0.00
2018-09-14T01:03:06.151Z,0.00
2018-09-14T01:04:06.078Z,0.00
2018-09-14T01:05:58.841Z,0.00
2018-09-14T01:06:58.772Z,0.00
2018-09-14T01:08:51.544Z,0.00
2018-09-14T01:09:51.474Z,0.00
2018-09-14T01:11:44.225Z,0.00
2018-09-14T01:12:44.147Z,0.00
2018-09-14T01:14:36.923Z,0.00
2018-09-14T01:15:36.850Z,0.00
2018-09-14T01:17:29.628Z,0.00
2018-09-14T01:18:29.541Z,0.00
2018-09-14T01:20:22.379Z,0.00
2018-09-14T01:21:22.263Z,0.00
2018-09-14T01:23:15.040Z,0.00
2018-09-14T01:24:14.965Z,0.00
2018-09-14T01:26:07.723Z,0.00
2018-09-14T01:27:07.658Z,0.00
2018-09-14T01:29:00.429Z,0.00
2018-09-14T01:30:00.359Z,0.00
2018-09-14T01:31:53.119Z,0.00
2018-09-14T01:32:53.057Z,0.00
2018-09-14T01:34:45.837Z,0.00
2018-09-14T01:35:45.743Z,0.00
2018-09-14T01:37:38.533Z,0.00
2018-09-14T01:38:38.449Z,0.00
2018-09-14T01:40:31.201Z,0.00
2018-09-14T01:41:31.139Z,0.00
2018-09-14T01:43:23.936Z,0.00
2018-09-14T01:44:23.851Z,0.00
2018-09-14T01:46:16.618Z,0.00
2018-09-14T01:47:16.544Z,0.00
2018-09-14T01:49:09.333Z,0.00
2018-09-14T01:50:09.249Z,0.00
2018-09-14T01:52:02.035Z,0.00
2018-09-14T01:53:01.975Z,0.00
2018-09-14T01:54:54.741Z,0.00
2018-09-14T01:55:54.681Z,0.00
2018-09-14T01:57:47.449Z,0.00
2018-09-14T01:58:47.375Z,0.00
2018-09-14T02:00:40.149Z,0.00
2018-09-14T02:01:40.081Z,0.00
2018-09-14T02:03:32.924Z,0.00
2018-09-14T02:04:32.777Z,0.00
2018-09-14T02:06:25.533Z,0.00
2018-09-14T02:07:25.473Z,0.00
2018-09-14T02:09:18.244Z,0.00
2018-09-14T02:10:18.177Z,0.00
2018-09-14T02:12:10.928Z,0.00
2018-09-14T02:13:10.863Z,0.00
2018-09-14T02:15:03.644Z,0.00
2018-09-14T02:16:03.574Z,0.00
2018-09-14T02:17:56.339Z,0.00
2018-09-14T02:18:56.268Z,0.00
2018-09-14T02:20:49.047Z,0.00
2018-09-14T02:21:48.978Z,0.00
2018-09-14T02:23:41.741Z,0.00
2018-09-14T02:24:41.662Z,0.00
2018-09-14T02:26:34.423Z,0.00
2018-09-14T02:27:34.364Z,0.00
2018-09-14T02:29:27.156Z,0.00
2018-09-14T02:30:27.072Z,0.00
2018-09-14T02:32:19.826Z,0.00
2018-09-14T02:33:19.763Z,0.00
2018-09-14T02:35:12.535Z,0.00
2018-09-14T02:36:12.465Z,0.00
2018-09-14T02:38:05.239Z,0.00
2018-09-14T02:39:05.175Z,0.00
2018-09-14T02:40:57.953Z,0.00
2018-09-14T02:41:57.882Z,0.00
2018-09-14T02:43:50.671Z,0.00
2018-09-14T02:44:50.596Z,0.00
2018-09-14T02:46:43.363Z,0.00
2018-09-14T02:47:43.318Z,0.00
2018-09-14T02:49:36.067Z,0.00
2018-09-14T02:50:35.990Z,0.00
2018-09-14T02:52:28.766Z,0.00
2018-09-14T02:53:28.692Z,0.00
2018-09-14T02:55:21.472Z,0.00
2018-09-14T02:56:21.392Z,0.00
2018-09-14T02:58:14.161Z,0.00
2018-09-14T02:59:14.095Z,0.00
2018-09-14T03:01:06.855Z,0.00
2018-09-14T03:02:06.782Z,0.00
2018-09-14T03:03:59.588Z,0.00
2018-09-14T03:04:59.503Z,0.00
2018-09-14T03:06:52.284Z,0.00
2018-09-14T03:07:52.222Z,0.00
2018-09-14T03:09:45.013Z,0.00
2018-09-14T03:10:44.914Z,0.00
2018-09-14T03:12:37.671Z,0.00
2018-09-14T03:13:37.612Z,0.00
2018-09-14T03:15:30.382Z,0.00
2018-09-14T03:16:30.306Z,0.00
2018-09-14T03:18:23.064Z,0.00
2018-09-14T03:19:23.024Z,0.00
2018-09-14T03:21:15.750Z,0.00
2018-09-14T03:22:15.689Z,0.00
2018-09-14T03:24:08.459Z,0.00
2018-09-14T03:25:08.381Z,0.00
2018-09-14T03:27:01.143Z,0.00
2018-09-14T03:28:01.151Z,0.00
2018-09-14T03:29:53.881Z,0.00
2018-09-14T03:30:53.769Z,0.00
2018-09-14T03:32:46.541Z,0.00
2018-09-14T03:33:46.478Z,0.00
2018-09-14T03:35:39.249Z,0.00
2018-09-14T03:36:39.168Z,0.00
2018-09-14T03:38:31.948Z,0.00
2018-09-14T03:39:31.861Z,0.00
2018-09-14T03:41:24.624Z,0.00
2018-09-14T03:42:24.561Z,0.00
2018-09-14T03:44:17.350Z,0.00
2018-09-14T03:45:17.284Z,0.00
2018-09-14T03:47:10.078Z,0.00
2018-09-14T03:48:10.012Z,0.00
2018-09-14T03:50:02.792Z,0.00
2018-09-14T03:51:02.714Z,0.00
2018-09-14T03:52:55.489Z,0.00
2018-09-14T03:53:55.424Z,0.00
2018-09-14T03:55:48.184Z,0.00
2018-09-14T03:56:48.104Z,0.00
2018-09-14T03:58:40.896Z,0.00
2018-09-14T03:59:40.811Z,0.00
2018-09-14T04:01:33.637Z,0.00
2018-09-14T04:02:33.561Z,0.00
2018-09-14T04:04:26.391Z,0.00
2018-09-14T04:05:26.313Z,0.00
2018-09-14T04:07:19.093Z,0.00
2018-09-14T04:08:19.036Z,0.00
2018-09-14T04:10:11.790Z,0.00
2018-09-14T04:11:11.720Z,0.00
2018-09-14T04:13:04.545Z,0.00
2018-09-14T04:14:04.463Z,0.00
2018-09-14T04:15:57.300Z,0.00
2018-09-14T04:16:57.213Z,0.00
2018-09-14T04:18:50.043Z,0.00
2018-09-14T04:19:49.973Z,0.00
2018-09-14T04:21:42.746Z,0.00
2018-09-14T04:22:42.681Z,0.00
2018-09-14T04:24:35.449Z,0.00
2018-09-14T04:25:35.376Z,0.00
2018-09-14T04:27:28.157Z,0.00
2018-09-14T04:28:28.091Z,0.00
2018-09-14T04:30:20.855Z,0.00
2018-09-14T04:31:20.784Z,0.00
2018-09-14T04:33:13.546Z,0.00
2018-09-14T04:34:13.474Z,0.00
2018-09-14T04:36:06.249Z,0.00
2018-09-14T04:37:06.177Z,0.00
2018-09-14T04:38:58.966Z,0.00
2018-09-14T04:39:58.934Z,0.00
2018-09-14T04:41:51.634Z,0.00
2018-09-14T04:42:51.578Z,0.00
2018-09-14T04:44:44.360Z,0.00
2018-09-14T04:45:44.267Z,0.00
2018-09-14T04:47:37.034Z,5.63
2018-09-14T04:48:36.967Z,5.63
2018-09-14T04:50:29.784Z,5.63
2018-09-14T04:51:29.816Z,5.63
2018-09-14T04:53:22.506Z,5.63
2018-09-14T04:54:22.441Z,5.63
2018-09-14T04:56:15.268Z,11.25
2018-09-14T04:57:15.224Z,11.25
2018-09-14T04:59:07.992Z,11.25
2018-09-14T05:00:07.887Z,11.25
2018-09-14T05:02:00.695Z,11.25
2018-09-14T05:03:00.608Z,11.25
2018-09-14T05:04:53.435Z,16.88
2018-09-14T05:05:53.357Z,16.88
2018-09-14T05:07:46.183Z,16.88
2018-09-14T05:08:46.116Z,16.88
2018-09-14T05:10:39.007Z,22.50
2018-09-14T05:11:38.807Z,22.50
2018-09-14T05:13:31.573Z,22.50
2018-09-14T05:14:31.508Z,22.50
2018-09-14T05:16:24.331Z,22.50
2018-09-14T05:17:24.260Z,28.13
2018-09-14T05:19:17.069Z,28.13
2018-09-14T05:20:17.016Z,28.13
2018-09-14T05:22:09.822Z,33.75
2018-09-14T05:23:09.744Z,33.75
2018-09-14T05:25:02.562Z,33.75
2018-09-14T05:26:02.430Z,33.75
2018-09-14T05:27:55.203Z,39.38
2018-09-14T05:28:55.142Z,39.38
2018-09-14T05:30:47.903Z,45.00
2018-09-14T05:31:47.835Z,45.00
2018-09-14T05:33:40.602Z,45.00
2018-09-14T05:34:40.541Z,50.63
2018-09-14T05:36:33.316Z,50.63
2018-09-14T05:37:33.241Z,56.25
2018-09-14T05:39:26.004Z,61.88
2018-09-14T05:40:25.938Z,67.50
2018-09-14T05:42:18.707Z,73.13
2018-09-14T05:43:18.633Z,73.13
2018-09-14T05:45:11.409Z,78.75
2018-09-14T05:46:11.334Z,78.75
2018-09-14T05:48:04.092Z,78.75
2018-09-14T05:49:04.028Z,78.75
2018-09-14T05:50:56.807Z,84.38
2018-09-14T05:51:56.721Z,84.38
2018-09-14T05:53:49.504Z,90.00
2018-09-14T05:54:49.427Z,90.00
2018-09-14T05:56:42.202Z,90.00
2018-09-14T05:57:42.118Z,90.00
2018-09-14T05:59:34.877Z,95.63
2018-09-14T06:00:34.819Z,101.25
2018-09-14T06:02:27.592Z,101.25
2018-09-14T06:03:27.509Z,101.25
2018-09-14T06:05:20.289Z,106.88
2018-09-14T06:06:20.214Z,112.50
2018-09-14T06:08:13.005Z,118.13
2018-09-14T06:09:12.942Z,118.13
2018-09-14T06:11:05.711Z,118.13
2018-09-14T06:12:05.639Z,123.75
2018-09-14T06:13:58.439Z,129.38
2018-09-14T06:14:58.368Z,129.38
2018-09-14T06:16:50.287Z,146.25
2018-09-14T06:17:50.224Z,157.50
2018-09-14T06:19:42.987Z,168.75
2018-09-14T06:20:43.017Z,174.38
2018-09-14T06:22:35.767Z,180.00
2018-09-14T06:23:35.614Z,185.63
2018-09-14T06:25:28.388Z,191.25
2018-09-14T06:26:28.317Z,196.88
2018-09-14T06:28:21.089Z,202.50
2018-09-14T06:29:21.026Z,213.75
2018-09-14T06:31:13.807Z,219.38
2018-09-14T06:32:13.729Z,225.00
2018-09-14T06:34:06.491Z,241.88
2018-09-14T06:35:06.459Z,258.75
2018-09-14T06:36:59.216Z,247.50
2018-09-14T06:37:59.145Z,213.75
2018-09-14T06:39:51.944Z,219.38
2018-09-14T06:40:51.830Z,219.38
2018-09-14T06:42:44.638Z,219.38
2018-09-14T06:43:44.564Z,219.38
2018-09-14T06:45:37.339Z,225.00
2018-09-14T06:46:37.268Z,225.00
2018-09-14T06:48:30.035Z,230.63
2018-09-14T06:49:29.963Z,225.00
2018-09-14T06:51:22.736Z,225.00
2018-09-14T06:52:22.669Z,230.63
2018-09-14T06:54:15.440Z,219.38
2018-09-14T06:55:15.363Z,208.13
2018-09-14T06:57:08.148Z,196.88
2018-09-14T06:58:08.071Z,196.88
2018-09-14T07:00:00.864Z,191.25
2018-09-14T07:01:00.767Z,185.63
2018-09-14T07:02:53.549Z,180.00
2018-09-14T07:03:53.469Z,180.00
2018-09-14T07:05:46.265Z,168.75
2018-09-14T07:06:46.173Z,168.75
2018-09-14T07:08:38.962Z,168.75
2018-09-14T07:09:38.873Z,168.75
2018-09-14T07:11:31.712Z,174.38
2018-09-14T07:12:31.575Z,174.38
2018-09-14T07:14:24.346Z,174.38
2018-09-14T07:15:24.287Z,174.38
2018-09-14T07:17:17.060Z,180.00
2018-09-14T07:18:16.978Z,185.63
2018-09-14T07:20:09.748Z,185.63
2018-09-14T07:21:09.682Z,185.63
2018-09-14T07:23:02.472Z,191.25
2018-09-14T07:24:02.480Z,191.25
2018-09-14T07:25:55.193Z,196.88
2018-09-14T07:26:55.116Z,202.50
2018-09-14T07:28:47.973Z,208.13
2018-09-14T07:29:47.808Z,208.13
2018-09-14T07:31:40.635Z,213.75
2018-09-14T07:32:40.501Z,213.75
2018-09-14T07:34:33.263Z,225.00
2018-09-14T07:35:33.201Z,230.63
2018-09-14T07:37:25.971Z,247.50
2018-09-14T07:38:25.901Z,258.75
2018-09-14T07:40:18.666Z,270.00
2018-09-14T07:41:18.600Z,270.00
2018-09-14T07:43:11.374Z,275.63
2018-09-14T07:44:11.306Z,281.25
2018-09-14T07:46:04.069Z,303.75
2018-09-14T07:47:04.004Z,309.38
2018-09-14T07:48:56.807Z,326.25
2018-09-14T07:49:56.720Z,331.88
2018-09-14T07:51:49.489Z,343.13
2018-09-14T07:52:49.417Z,348.75
2018-09-14T07:54:42.196Z,360.00
2018-09-14T07:55:42.122Z,360.00
2018-09-14T07:57:34.924Z,365.63
2018-09-14T07:58:34.847Z,360.00
2018-09-14T08:00:27.607Z,365.63
2018-09-14T08:01:27.548Z,371.25
2018-09-14T08:03:20.337Z,388.13
2018-09-14T08:04:20.265Z,393.75
2018-09-14T08:06:13.073Z,382.50
2018-09-14T08:07:12.970Z,382.50
2018-09-14T08:09:05.725Z,405.00
2018-09-14T08:10:05.664Z,405.00
2018-09-14T08:11:58.466Z,450.00
2018-09-14T08:12:58.366Z,382.50
2018-09-14T08:14:51.126Z,371.25
2018-09-14T08:15:51.065Z,371.25
2018-09-14T08:17:43.872Z,371.25
2018-09-14T08:18:43.795Z,371.25
2018-09-14T08:20:36.562Z,388.13
2018-09-14T08:21:36.600Z,382.50
2018-09-14T08:23:29.298Z,393.75
2018-09-14T08:24:29.222Z,410.63
2018-09-14T08:26:22.021Z,438.75
2018-09-14T08:27:21.945Z,450.00
2018-09-14T08:29:14.713Z,483.75
2018-09-14T08:30:14.654Z,489.38
2018-09-14T08:32:07.440Z,495.00
2018-09-14T08:33:07.366Z,506.25
2018-09-14T08:35:00.235Z,573.75
2018-09-14T08:36:00.153Z,573.75
2018-09-14T08:37:52.949Z,562.50
2018-09-14T08:38:52.872Z,573.75
2018-09-14T08:40:45.656Z,590.63
2018-09-14T08:41:45.597Z,579.38
2018-09-14T08:43:38.385Z,596.25
2018-09-14T08:44:38.356Z,630.00
2018-09-14T08:46:31.092Z,703.13
2018-09-14T08:47:31.052Z,770.63
2018-09-14T08:49:23.824Z,905.63
2018-09-14T08:50:23.775Z,995.63
2018-09-14T08:52:16.570Z,1254.38
2018-09-14T08:53:16.505Z,1282.50
2018-09-14T08:55:09.266Z,2390.63
2018-09-14T08:56:09.207Z,1636.88
2018-09-14T08:58:02.021Z,2683.13
2018-09-14T08:59:01.925Z,2610.00
2018-09-14T09:00:54.836Z,1884.38
2018-09-14T09:01:54.654Z,1726.88
2018-09-14T09:03:47.487Z,1771.88
2018-09-14T09:04:47.362Z,3915.00
2018-09-14T09:06:40.154Z,1968.75
2018-09-14T09:07:40.096Z,1935.00
2018-09-14T09:09:32.868Z,1828.13
2018-09-14T09:10:32.806Z,2475.00
2018-09-14T09:12:25.621Z,1906.88
2018-09-14T09:13:25.553Z,4815.00
2018-09-14T09:15:18.372Z,1805.63
2018-09-14T09:16:18.314Z,1237.50
2018-09-14T09:18:11.125Z,1305.00
2018-09-14T09:19:11.104Z,1794.38
2018-09-14T09:21:03.870Z,1513.13
2018-09-14T09:22:03.807Z,1102.50
2018-09-14T09:23:56.596Z,1046.25
2018-09-14T09:24:56.528Z,1710.00
2018-09-14T09:26:49.322Z,1513.13
2018-09-14T09:27:49.259Z,1445.63
2018-09-14T09:29:42.048Z,1096.88
2018-09-14T09:30:41.993Z,967.50
2018-09-14T09:32:34.779Z,810.00
2018-09-14T09:33:34.706Z,765.00
2018-09-14T09:35:27.597Z,720.00
2018-09-14T09:36:27.555Z,686.25
2018-09-14T09:38:20.355Z,646.88
2018-09-14T09:39:20.258Z,652.50
2018-09-14T09:41:13.137Z,663.75
2018-09-14T09:42:12.972Z,641.25
2018-09-14T09:44:05.829Z,556.88
2018-09-14T09:45:05.707Z,528.75
2018-09-14T09:46:58.488Z,500.63
2018-09-14T09:47:58.433Z,495.00
2018-09-14T09:49:51.325Z,506.25
2018-09-14T09:50:51.333Z,528.75
2018-09-14T09:52:44.031Z,556.88
2018-09-14T09:53:43.949Z,568.13
2018-09-14T09:55:36.725Z,596.25
2018-09-14T09:56:36.719Z,601.88
2018-09-14T09:58:29.474Z,607.50
2018-09-14T09:59:29.398Z,607.50
2018-09-14T10:01:22.161Z,573.75
2018-09-14T10:02:22.101Z,545.63
2018-09-14T10:04:14.892Z,511.88
2018-09-14T10:05:14.809Z,506.25
2018-09-14T10:07:07.592Z,528.75
2018-09-14T10:08:07.540Z,540.00
2018-09-14T10:10:00.322Z,562.50
2018-09-14T10:11:00.250Z,534.38
2018-09-14T10:12:53.053Z,506.25
2018-09-14T10:13:52.977Z,483.75
2018-09-14T10:15:45.756Z,455.63
2018-09-14T10:16:45.696Z,433.13
2018-09-14T10:18:38.471Z,416.25
2018-09-14T10:19:38.399Z,416.25
2018-09-14T10:21:31.172Z,433.13
2018-09-14T10:22:31.115Z,461.25
2018-09-14T10:24:23.890Z,466.88
2018-09-14T10:25:23.813Z,461.25
2018-09-14T10:27:16.604Z,450.00
2018-09-14T10:28:16.551Z,461.25
2018-09-14T10:30:09.356Z,472.50
2018-09-14T10:31:09.269Z,478.13
2018-09-14T10:33:02.070Z,489.38
2018-09-14T10:34:02.094Z,478.13
2018-09-14T10:35:54.771Z,466.88
2018-09-14T10:36:54.746Z,483.75
2018-09-14T10:38:47.501Z,500.63
2018-09-14T10:39:47.426Z,483.75
2018-09-14T10:41:40.198Z,455.63
2018-09-14T10:42:40.150Z,450.00
2018-09-14T10:44:32.914Z,427.50
2018-09-14T10:45:32.855Z,416.25
2018-09-14T10:47:25.611Z,421.88
2018-09-14T10:48:25.555Z,416.25
2018-09-14T10:50:18.347Z,438.75
2018-09-14T10:51:18.285Z,421.88
2018-09-14T10:53:11.073Z,405.00
2018-09-14T10:54:11.003Z,405.00
2018-09-14T10:56:03.761Z,416.25
2018-09-14T10:57:03.699Z,421.88
2018-09-14T10:58:56.518Z,405.00
2018-09-14T10:59:56.450Z,393.75
2018-09-14T11:01:49.220Z,388.13
2018-09-14T11:02:49.157Z,388.13
2018-09-14T11:04:41.945Z,405.00
2018-09-14T11:05:41.878Z,416.25
2018-09-14T11:07:34.648Z,427.50
2018-09-14T11:08:34.586Z,427.50
2018-09-14T11:10:27.410Z,433.13
2018-09-14T11:11:27.339Z,433.13
2018-09-14T11:13:20.128Z,438.75
2018-09-14T11:14:20.058Z,444.38
2018-09-14T11:16:12.833Z,450.00
2018-09-14T11:17:12.775Z,444.38
2018-09-14T11:19:05.564Z,421.88
2018-09-14T11:20:05.494Z,405.00
2018-09-14T11:21:58.300Z,371.25
2018-09-14T11:22:58.236Z,360.00
2018-09-14T11:24:51.255Z,360.00
2018-09-14T11:25:50.958Z,354.38
2018-09-14T11:27:43.779Z,337.50
2018-09-14T11:28:43.674Z,326.25
2018-09-14T11:30:36.465Z,298.13
2018-09-14T11:31:36.397Z,292.50
2018-09-14T11:33:29.214Z,286.88
2018-09-14T11:34:29.151Z,281.25
2018-09-14T11:36:21.950Z,275.63
2018-09-14T11:37:21.925Z,270.00
2018-09-14T11:39:14.704Z,253.13
2018-09-14T11:40:14.605Z,241.88
2018-09-14T11:42:07.384Z,230.63
2018-09-14T11:43:07.326Z,236.25
2018-09-14T11:45:00.102Z,253.13
2018-09-14T11:46:00.082Z,264.38
2018-09-14T11:47:52.804Z,292.50
2018-09-14T11:48:52.740Z,315.00
2018-09-14T11:50:45.584Z,343.13
2018-09-14T11:51:45.456Z,354.38
2018-09-14T11:53:38.261Z,348.75
2018-09-14T11:54:38.187Z,348.75
2018-09-14T11:56:31.007Z,337.50
2018-09-14T11:57:30.958Z,331.88
2018-09-14T11:59:23.751Z,326.25
2018-09-14T12:00:23.692Z,315.00
2018-09-14T12:02:16.508Z,298.13
2018-09-14T12:03:16.440Z,292.50
2018-09-14T12:05:09.252Z,303.75
2018-09-14T12:06:09.192Z,315.00
2018-09-14T12:08:01.980Z,354.38
2018-09-14T12:09:01.920Z,365.63
2018-09-14T12:10:54.690Z,382.50
2018-09-14T12:11:54.613Z,382.50
2018-09-14T12:13:47.460Z,382.50
2018-09-14T12:14:47.340Z,371.25
2018-09-14T12:16:40.140Z,365.63
2018-09-14T12:17:40.080Z,360.00
2018-09-14T12:19:32.853Z,382.50
2018-09-14T12:20:32.788Z,388.13
2018-09-14T12:22:25.643Z,388.13
2018-09-14T12:23:25.498Z,376.88
2018-09-14T12:25:18.300Z,348.75
2018-09-14T12:26:18.215Z,331.88
2018-09-14T12:28:10.992Z,315.00
2018-09-14T12:29:10.925Z,298.13
2018-09-14T12:31:03.697Z,270.00
2018-09-14T12:32:03.624Z,258.75
2018-09-14T12:33:56.449Z,253.13
2018-09-14T12:34:56.363Z,253.13
2018-09-14T12:36:49.136Z,247.50
2018-09-14T12:37:49.075Z,241.88
2018-09-14T12:39:41.845Z,230.63
2018-09-14T12:40:41.768Z,230.63
2018-09-14T12:42:34.541Z,236.25
2018-09-14T12:43:34.474Z,241.88
2018-09-14T12:45:27.247Z,258.75
2018-09-14T12:46:27.186Z,270.00
2018-09-14T12:48:19.944Z,286.88
2018-09-14T12:49:19.881Z,298.13
2018-09-14T12:51:12.661Z,326.25
2018-09-14T12:52:12.594Z,331.88
2018-09-14T12:54:05.367Z,331.88
2018-09-14T12:55:05.311Z,337.50
2018-09-14T12:56:58.097Z,331.88
2018-09-14T12:57:58.023Z,320.63
2018-09-14T12:59:50.988Z,309.38
2018-09-14T13:00:50.919Z,303.75
2018-09-14T13:02:43.678Z,298.13
2018-09-14T13:03:43.624Z,309.38
2018-09-14T13:05:36.398Z,320.63
2018-09-14T13:06:36.357Z,326.25
2018-09-14T13:08:29.093Z,320.63
2018-09-14T13:09:29.032Z,326.25
2018-09-14T13:11:21.813Z,303.75
2018-09-14T13:12:21.747Z,298.13
2018-09-14T13:14:14.527Z,275.63
2018-09-14T13:15:14.453Z,264.38
2018-09-14T13:17:07.246Z,253.13
2018-09-14T13:18:07.177Z,247.50
2018-09-14T13:19:59.960Z,225.00
2018-09-14T13:20:59.893Z,225.00
2018-09-14T13:22:52.644Z,225.00
2018-09-14T13:23:52.591Z,236.25
2018-09-14T13:25:45.483Z,247.50
2018-09-14T13:26:45.290Z,247.50
2018-09-14T13:28:38.092Z,230.63
2018-09-14T13:29:38.022Z,225.00
2018-09-14T13:31:30.816Z,225.00
2018-09-14T13:32:30.743Z,225.00
2018-09-14T13:34:23.502Z,208.13
2018-09-14T13:35:23.443Z,202.50
2018-09-14T13:37:16.243Z,219.38
2018-09-14T13:38:16.184Z,219.38
2018-09-14T13:40:09.020Z,230.63
2018-09-14T13:41:08.899Z,264.38
2018-09-14T13:43:01.652Z,292.50
2018-09-14T13:44:01.590Z,253.13
2018-09-14T13:45:54.409Z,253.13
2018-09-14T13:46:54.335Z,247.50
2018-09-14T13:48:47.135Z,241.88
2018-09-14T13:49:47.067Z,230.63
2018-09-14T13:51:39.846Z,208.13
2018-09-14T13:52:39.819Z,191.25
2018-09-14T13:54:32.551Z,191.25
2018-09-14T13:55:32.489Z,191.25
2018-09-14T13:57:25.284Z,185.63
2018-09-14T13:58:25.212Z,185.63
2018-09-14T14:00:17.990Z,185.63
2018-09-14T14:01:17.960Z,180.00
2018-09-14T14:03:10.685Z,174.38
2018-09-14T14:04:10.625Z,168.75
2018-09-14T14:06:03.420Z,157.50
2018-09-14T14:07:03.345Z,151.88
2018-09-14T14:08:56.133Z,146.25
2018-09-14T14:09:56.091Z,140.63
2018-09-14T14:11:48.840Z,135.00
2018-09-14T14:12:48.764Z,135.00
2018-09-14T14:14:41.541Z,129.38
2018-09-14T14:15:41.493Z,129.38
2018-09-14T14:17:34.326Z,129.38
2018-09-14T14:18:34.188Z,146.25
2018-09-14T14:20:26.987Z,151.88
2018-09-14T14:21:26.940Z,140.63
2018-09-14T14:23:19.716Z,213.75
2018-09-14T14:24:19.645Z,225.00
2018-09-14T14:26:12.426Z,163.13
2018-09-14T14:27:12.348Z,174.38
2018-09-14T14:29:05.135Z,191.25
2018-09-14T14:30:05.064Z,191.25
2018-09-14T14:31:57.836Z,191.25
2018-09-14T14:32:57.771Z,191.25
2018-09-14T14:34:50.530Z,241.88
2018-09-14T14:35:50.483Z,180.00
2018-09-14T14:37:43.295Z,163.13
2018-09-14T14:38:43.212Z,163.13
2018-09-14T14:40:36.010Z,163.13
2018-09-14T14:41:35.957Z,157.50
2018-09-14T14:43:28.704Z,174.38
2018-09-14T14:44:28.638Z,225.00
2018-09-14T14:46:21.443Z,213.75
2018-09-14T14:47:21.363Z,168.75
2018-09-14T14:49:14.136Z,146.25
2018-09-14T14:50:14.072Z,140.63
2018-09-14T14:52:06.849Z,140.63
2018-09-14T14:53:06.779Z,213.75
2018-09-14T14:54:59.539Z,213.75
2018-09-14T14:55:59.500Z,168.75
2018-09-14T14:57:52.286Z,157.50
2018-09-14T14:58:52.220Z,185.63
2018-09-14T15:00:45.034Z,236.25
2018-09-14T15:01:44.964Z,230.63
2018-09-14T15:03:37.726Z,202.50
2018-09-14T15:04:37.679Z,196.88
2018-09-14T15:06:30.459Z,191.25
2018-09-14T15:07:30.385Z,191.25
2018-09-14T15:09:23.189Z,146.25
2018-09-14T15:10:23.109Z,180.00
2018-09-14T15:12:15.890Z,180.00
2018-09-14T15:13:15.840Z,180.00
2018-09-14T15:15:08.594Z,180.00
2018-09-14T15:16:08.522Z,180.00
2018-09-14T15:18:01.320Z,180.00
2018-09-14T15:19:01.255Z,174.38
2018-09-14T15:20:54.001Z,168.75
2018-09-14T15:21:53.941Z,168.75
2018-09-14T15:23:46.740Z,106.88
2018-09-14T15:24:46.687Z,101.25
2018-09-14T15:26:39.507Z,95.63
2018-09-14T15:27:39.441Z,95.63
2018-09-14T15:29:32.298Z,95.63
2018-09-14T15:30:32.237Z,101.25
2018-09-14T15:32:25.009Z,129.38
2018-09-14T15:33:24.940Z,135.00
2018-09-14T15:35:17.729Z,129.38
2018-09-14T15:36:17.669Z,135.00
2018-09-14T15:38:10.456Z,135.00
2018-09-14T15:39:10.384Z,135.00
2018-09-14T15:41:03.164Z,129.38
2018-09-14T15:42:03.093Z,101.25
2018-09-14T15:43:55.876Z,95.63
2018-09-14T15:44:55.817Z,95.63
2018-09-14T15:46:48.588Z,101.25
2018-09-14T15:47:48.513Z,101.25
2018-09-14T15:49:41.314Z,112.50
2018-09-14T15:50:41.250Z,118.13
2018-09-14T15:52:34.062Z,95.63
2018-09-14T15:53:33.989Z,95.63
2018-09-14T15:55:26.813Z,95.63
2018-09-14T15:56:26.744Z,95.63
2018-09-14T15:58:19.543Z,95.63
2018-09-14T15:59:19.476Z,90.00
2018-09-14T16:01:12.252Z,84.38
2018-09-14T16:02:12.164Z,84.38
2018-09-14T16:04:04.942Z,73.13
2018-09-14T16:05:04.896Z,73.13
2018-09-14T16:06:57.712Z,73.13
2018-09-14T16:07:57.641Z,73.13
2018-09-14T16:09:50.430Z,73.13
2018-09-14T16:10:50.368Z,73.13
2018-09-14T16:12:43.157Z,78.75
2018-09-14T16:13:43.170Z,73.13
2018-09-14T16:15:35.845Z,73.13
2018-09-14T16:16:35.784Z,78.75
2018-09-14T16:18:28.645Z,67.50
2018-09-14T16:19:28.548Z,67.50
2018-09-14T16:21:21.324Z,67.50
2018-09-14T16:22:21.267Z,67.50
2018-09-14T16:24:14.039Z,61.88
2018-09-14T16:25:14.002Z,61.88
2018-09-14T16:27:06.761Z,61.88
2018-09-14T16:28:06.686Z,61.88
2018-09-14T16:29:59.446Z,56.25
2018-09-14T16:30:59.385Z,56.25
2018-09-14T16:32:52.158Z,50.63
2018-09-14T16:33:52.084Z,50.63
2018-09-14T16:35:44.887Z,45.00
2018-09-14T16:36:44.838Z,45.00
2018-09-14T16:38:37.599Z,45.00
2018-09-14T16:39:37.529Z,45.00
2018-09-14T16:41:30.276Z,45.00
2018-09-14T16:42:30.218Z,39.38
2018-09-14T16:44:23.002Z,39.38
2018-09-14T16:45:22.926Z,39.38
2018-09-14T16:47:15.711Z,39.38
2018-09-14T16:48:15.636Z,33.75
2018-09-14T16:50:08.437Z,33.75
2018-09-14T16:51:08.363Z,33.75
2018-09-14T16:53:01.131Z,33.75
2018-09-14T16:54:01.057Z,33.75
2018-09-14T16:55:53.853Z,28.13
2018-09-14T16:56:53.791Z,28.13
2018-09-14T16:58:46.575Z,28.13
2018-09-14T16:59:46.510Z,22.50
2018-09-14T17:01:39.281Z,22.50
2018-09-14T17:02:39.239Z,22.50
2018-09-14T17:04:31.981Z,16.88
2018-09-14T17:05:31.913Z,16.88
2018-09-14T17:07:24.685Z,16.88
2018-09-14T17:08:24.605Z,16.88
2018-09-14T17:10:17.372Z,11.25
2018-09-14T17:11:17.306Z,11.25
2018-09-14T17:13:10.099Z,11.25
2018-09-14T17:14:10.027Z,11.25
2018-09-14T17:16:02.785Z,5.63
2018-09-14T17:17:02.738Z,5.63
2018-09-14T17:18:55.514Z,5.63
2018-09-14T17:19:55.438Z,5.63
2018-09-14T17:21:48.231Z,5.63
2018-09-14T17:22:48.161Z,5.63
2018-09-14T17:24:40.931Z,0.00
2018-09-14T17:25:40.860Z,0.00
2018-09-14T17:27:33.730Z,0.00
2018-09-14T17:28:33.558Z,0.00
2018-09-14T17:30:26.349Z,0.00
2018-09-14T17:31:26.269Z,0.00
2018-09-14T17:33:19.043Z,0.00
2018-09-14T17:34:18.963Z,0.00
2018-09-14T17:36:11.739Z,0.00
2018-09-14T17:37:11.678Z,0.00
2018-09-14T17:39:04.463Z,0.00
2018-09-14T17:40:04.385Z,0.00
2018-09-14T17:41:57.166Z,0.00
2018-09-14T17:42:57.097Z,0.00
2018-09-14T17:44:49.868Z,0.00
2018-09-14T17:45:49.802Z,0.00
2018-09-14T17:47:42.577Z,0.00
2018-09-14T17:48:42.492Z,0.00
2018-09-14T17:50:35.258Z,0.00
2018-09-14T17:51:35.201Z,0.00
2018-09-14T17:53:27.973Z,0.00
2018-09-14T17:54:27.901Z,0.00
2018-09-14T17:56:20.668Z,0.00
2018-09-14T17:57:20.621Z,0.00
2018-09-14T17:59:13.387Z,0.00
2018-09-14T18:00:13.315Z,0.00
2018-09-14T18:02:06.075Z,0.00
2018-09-14T18:03:06.016Z,0.00
2018-09-14T18:04:58.787Z,0.00
2018-09-14T18:05:58.718Z,0.00
2018-09-14T18:07:51.491Z,0.00
2018-09-14T18:08:51.416Z,0.00
2018-09-14T18:10:44.181Z,0.00
2018-09-14T18:11:44.110Z,0.00
2018-09-14T18:13:36.890Z,0.00
2018-09-14T18:14:36.816Z,0.00
2018-09-14T18:16:29.653Z,0.00
2018-09-14T18:17:29.568Z,0.00
2018-09-14T18:19:22.331Z,0.00
2018-09-14T18:20:22.262Z,0.00
2018-09-14T18:22:15.093Z,0.00
2018-09-14T18:23:14.954Z,0.00